createdAt,value
2018-12-31T00:00:03.866Z,1032.3
2018-12-31T00:01:03.993Z,1032.3
2018-12-31T00:02:03.182Z,1032.4
2018-12-31T00:03:03.220Z,1032.4
2018-12-31T00:04:03.751Z,1032.5
2018-12-31T00:05:03.416Z,1032.5
2018-12-31T00:06:04.018Z,1032.4
2018-12-31T00:07:03.204Z,1032.4
2018-12-31T00:08:03.679Z,1032.5
2018-12-31T00:09:03.395Z,1032.5
2018-12-31T00:10:03.219Z,1032.6
2018-12-31T00:11:03.249Z,1032.6
2018-12-31T00:12:03.458Z,1032.4
2018-12-31T00:13:03.270Z,1032.4
2018-12-31T00:14:03.266Z,1032.3
2018-12-31T00:15:04.387Z,1032.3
2018-12-31T00:17:04.087Z,1032.3
2018-12-31T00:18:03.442Z,1032.4
2018-12-31T00:19:03.800Z,1032.4
2018-12-31T00:20:02.225Z,1032.3
2018-12-31T00:21:03.782Z,1032.4
2018-12-31T00:22:03.102Z,1032.4
2018-12-31T00:23:04.306Z,1032.5
2018-12-31T00:24:03.679Z,1032.5
2018-12-31T00:25:03.617Z,1032.5
2018-12-31T00:26:03.823Z,1032.5
2018-12-31T00:27:03.298Z,1032.5
2018-12-31T00:28:03.323Z,1032.5
2018-12-31T00:29:03.917Z,1032.5
2018-12-31T00:30:03.915Z,1032.5
2018-12-31T00:31:03.618Z,1032.6
2018-12-31T00:32:03.380Z,1032.5
2018-12-31T00:33:04.167Z,1032.5
2018-12-31T00:34:03.737Z,1032.5
2018-12-31T00:35:03.507Z,1032.5
2018-12-31T00:36:03.467Z,1032.5
2018-12-31T00:37:04.836Z,1032.4
2018-12-31T00:38:03.118Z,1032.4
2018-12-31T00:39:03.973Z,1032.4
2018-12-31T00:40:03.842Z,1032.5
2018-12-31T00:41:03.409Z,1032.5
2018-12-31T00:42:03.371Z,1032.4
2018-12-31T00:43:04.164Z,1032.4
2018-12-31T00:44:03.287Z,1032.4
2018-12-31T00:45:03.567Z,1032.3
2018-12-31T00:46:03.874Z,1032.3
2018-12-31T00:47:03.321Z,1032.3
2018-12-31T00:48:04.068Z,1032.4
2018-12-31T00:49:03.823Z,1032.3
2018-12-31T00:50:03.910Z,1032.4
2018-12-31T00:51:03.637Z,1032.5
2018-12-31T00:52:03.347Z,1032.4
2018-12-31T00:53:03.965Z,1032.4
2018-12-31T00:54:04.021Z,1032.4
2018-12-31T00:55:03.247Z,1032.6
2018-12-31T00:56:02.225Z,1032.5
2018-12-31T00:57:03.826Z,1032.5
2018-12-31T00:58:03.068Z,1032.4
2018-12-31T00:59:03.967Z,1032.4
2018-12-31T01:00:03.816Z,1032.4
2018-12-31T01:01:03.427Z,1032.5
2018-12-31T01:02:03.812Z,1032.5
2018-12-31T01:03:03.321Z,1032.5
2018-12-31T01:04:03.069Z,1032.6
2018-12-31T01:06:03.377Z,1032.6
2018-12-31T01:07:03.201Z,1032.6
2018-12-31T01:08:02.783Z,1032.6
2018-12-31T01:09:03.384Z,1032.6
2018-12-31T01:10:03.676Z,1032.5
2018-12-31T01:11:03.547Z,1032.6
2018-12-31T01:12:03.592Z,1032.5
2018-12-31T01:13:03.557Z,1032.5
2018-12-31T01:14:03.488Z,1032.6
2018-12-31T01:15:03.556Z,1032.6
2018-12-31T01:16:03.477Z,1032.5
2018-12-31T01:17:03.219Z,1032.5
2018-12-31T01:18:03.860Z,1032.6
2018-12-31T01:19:03.705Z,1032.6
2018-12-31T01:20:03.224Z,1032.6
2018-12-31T01:21:03.286Z,1032.6
2018-12-31T01:22:04.093Z,1032.6
2018-12-31T01:23:03.555Z,1032.6
2018-12-31T01:24:03.484Z,1032.5
2018-12-31T01:25:03.950Z,1032.6
2018-12-31T01:26:03.140Z,1032.6
2018-12-31T01:27:03.824Z,1032.6
2018-12-31T01:28:03.342Z,1032.6
2018-12-31T01:29:03.001Z,1032.6
2018-12-31T01:30:02.480Z,1032.7
2018-12-31T01:31:03.471Z,1032.7
2018-12-31T01:32:03.560Z,1032.6
2018-12-31T01:33:03.891Z,1032.7
2018-12-31T01:34:03.173Z,1032.6
2018-12-31T01:35:03.755Z,1032.6
2018-12-31T01:36:03.049Z,1032.7
2018-12-31T01:37:03.243Z,1032.7
2018-12-31T01:38:02.587Z,1032.5
2018-12-31T01:39:03.139Z,1032.5
2018-12-31T01:40:03.854Z,1032.6
2018-12-31T01:41:03.997Z,1032.6
2018-12-31T01:42:04.091Z,1032.6
2018-12-31T01:43:03.442Z,1032.7
2018-12-31T01:44:03.821Z,1032.6
2018-12-31T01:45:03.445Z,1032.6
2018-12-31T01:46:03.495Z,1032.7
2018-12-31T01:47:03.287Z,1032.7
2018-12-31T01:48:03.179Z,1032.7
2018-12-31T01:49:02.895Z,1032.7
2018-12-31T01:50:03.505Z,1032.7
2018-12-31T01:51:02.964Z,1032.6
2018-12-31T01:52:02.533Z,1032.7
2018-12-31T01:53:03.484Z,1032.7
2018-12-31T01:54:03.348Z,1032.6
2018-12-31T01:55:03.997Z,1032.6
2018-12-31T01:56:03.292Z,1032.7
2018-12-31T01:57:02.263Z,1032.6
2018-12-31T01:58:03.909Z,1032.6
2018-12-31T01:59:03.639Z,1032.6
2018-12-31T02:00:03.747Z,1032.6
2018-12-31T02:01:07.349Z,1032.6
2018-12-31T02:02:03.415Z,1032.6
2018-12-31T02:03:03.234Z,1032.6
2018-12-31T02:04:03.344Z,1032.6
2018-12-31T02:05:03.071Z,1032.6
2018-12-31T02:06:03.596Z,1032.6
2018-12-31T02:07:03.160Z,1032.7
2018-12-31T02:08:02.965Z,1032.6
2018-12-31T02:09:04.722Z,1032.6
2018-12-31T02:10:03.522Z,1032.5
2018-12-31T02:11:03.899Z,1032.6
2018-12-31T02:13:03.502Z,1032.6
2018-12-31T02:14:03.407Z,1032.6
2018-12-31T02:15:03.211Z,1032.6
2018-12-31T02:16:04.026Z,1032.6
2018-12-31T02:17:03.966Z,1032.6
2018-12-31T02:18:04.010Z,1032.5
2018-12-31T02:19:03.064Z,1032.5
2018-12-31T02:20:02.914Z,1032.5
2018-12-31T02:21:03.576Z,1032.5
2018-12-31T02:22:03.105Z,1032.5
2018-12-31T02:23:04.205Z,1032.4
2018-12-31T02:24:03.461Z,1032.4
2018-12-31T02:25:03.037Z,1032.4
2018-12-31T02:26:03.539Z,1032.3
2018-12-31T02:27:03.671Z,1032.3
2018-12-31T02:28:03.580Z,1032.3
2018-12-31T02:29:03.202Z,1032.4
2018-12-31T02:30:04.420Z,1032.4
2018-12-31T02:31:03.234Z,1032.4
2018-12-31T02:32:03.378Z,1032.4
2018-12-31T02:33:02.999Z,1032.4
2018-12-31T02:34:02.924Z,1032.4
2018-12-31T02:35:02.417Z,1032.2
2018-12-31T02:36:03.995Z,1032.3
2018-12-31T02:37:03.154Z,1032.3
2018-12-31T02:38:03.023Z,1032.3
2018-12-31T02:39:03.620Z,1032.3
2018-12-31T02:40:03.512Z,1032.3
2018-12-31T02:41:04.028Z,1032.3
2018-12-31T02:42:03.105Z,1032.3
2018-12-31T02:43:02.887Z,1032.3
2018-12-31T02:44:03.402Z,1032.3
2018-12-31T02:45:03.476Z,1032.3
2018-12-31T02:46:03.504Z,1032.3
2018-12-31T02:47:03.040Z,1032.2
2018-12-31T02:48:03.853Z,1032.2
2018-12-31T02:49:04.119Z,1032.2
2018-12-31T02:50:03.788Z,1032.2
2018-12-31T02:51:03.975Z,1032.2
2018-12-31T02:52:03.646Z,1032.2
2018-12-31T02:53:04.197Z,1032.2
2018-12-31T02:55:03.487Z,1032.2
2018-12-31T02:56:03.248Z,1032.3
2018-12-31T02:57:04.253Z,1032.3
2018-12-31T02:58:04.254Z,1032.3
2018-12-31T02:59:04.011Z,1032.3
2018-12-31T03:00:04.205Z,1032.3
2018-12-31T03:01:03.723Z,1032.3
2018-12-31T03:02:03.368Z,1032.3
2018-12-31T03:03:03.871Z,1032.2
2018-12-31T03:04:03.136Z,1032.2
2018-12-31T03:05:03.946Z,1032.2
2018-12-31T03:06:03.413Z,1032.2
2018-12-31T03:07:04.006Z,1032.1
2018-12-31T03:08:03.899Z,1032.2
2018-12-31T03:09:04.010Z,1032.2
2018-12-31T03:10:03.889Z,1032.1
2018-12-31T03:11:03.872Z,1032.1
2018-12-31T03:12:03.714Z,1032.1
2018-12-31T03:13:03.456Z,1032.1
2018-12-31T03:14:03.477Z,1032.1
2018-12-31T03:15:03.779Z,1032.1
2018-12-31T03:16:03.685Z,1032.1
2018-12-31T03:17:03.680Z,1032
2018-12-31T03:18:02.504Z,1032.1
2018-12-31T03:19:03.926Z,1032.1
2018-12-31T03:20:03.495Z,1032.1
2018-12-31T03:21:02.587Z,1032.2
2018-12-31T03:22:04.079Z,1032.2
2018-12-31T03:23:03.312Z,1032.2
2018-12-31T03:24:03.789Z,1032.1
2018-12-31T03:25:03.698Z,1032.2
2018-12-31T03:26:02.973Z,1032.2
2018-12-31T03:27:03.111Z,1032.2
2018-12-31T03:28:03.526Z,1032.2
2018-12-31T03:29:03.810Z,1032.1
2018-12-31T03:30:04.095Z,1032.1
2018-12-31T03:31:03.416Z,1032.2
2018-12-31T03:32:03.946Z,1032.2
2018-12-31T03:33:03.663Z,1032.1
2018-12-31T03:34:03.637Z,1032.1
2018-12-31T03:35:02.879Z,1032.2
2018-12-31T03:36:03.973Z,1032.2
2018-12-31T03:37:04.494Z,1032.2
2018-12-31T03:38:03.833Z,1032.2
2018-12-31T03:39:03.847Z,1032
2018-12-31T03:40:03.212Z,1032
2018-12-31T03:42:03.256Z,1032
2018-12-31T03:43:03.651Z,1032
2018-12-31T03:44:03.240Z,1032
2018-12-31T03:46:03.674Z,1032
2018-12-31T03:47:03.232Z,1031.9
2018-12-31T03:48:03.836Z,1032
2018-12-31T03:49:03.926Z,1031.9
2018-12-31T03:50:03.932Z,1031.9
2018-12-31T03:51:03.668Z,1031.9
2018-12-31T03:52:05.131Z,1031.9
2018-12-31T03:53:03.726Z,1032
2018-12-31T03:54:03.676Z,1031.9
2018-12-31T03:55:03.913Z,1032
2018-12-31T03:56:03.874Z,1032
2018-12-31T03:57:03.688Z,1031.9
2018-12-31T03:58:04.093Z,1032.1
2018-12-31T03:59:03.492Z,1032
2018-12-31T04:00:03.272Z,1032
2018-12-31T04:01:03.293Z,1032
2018-12-31T04:02:03.829Z,1032.1
2018-12-31T04:03:03.779Z,1032.1
2018-12-31T04:04:03.260Z,1032.1
2018-12-31T04:05:03.213Z,1032
2018-12-31T04:06:03.058Z,1032
2018-12-31T04:07:03.427Z,1031.9
2018-12-31T04:09:02.978Z,1032
2018-12-31T04:10:03.233Z,1032
2018-12-31T04:11:03.364Z,1032
2018-12-31T04:12:03.071Z,1032
2018-12-31T04:13:03.636Z,1032.1
2018-12-31T04:14:03.132Z,1032.1
2018-12-31T04:15:04.089Z,1032.1
2018-12-31T04:16:03.733Z,1032.2
2018-12-31T04:17:03.468Z,1032.2
2018-12-31T04:18:03.314Z,1032.1
2018-12-31T04:19:03.957Z,1032.1
2018-12-31T04:20:04.981Z,1032.1
2018-12-31T04:21:03.385Z,1032.2
2018-12-31T04:22:04.442Z,1032.1
2018-12-31T04:23:03.541Z,1032.1
2018-12-31T04:24:03.213Z,1031.8
2018-12-31T04:25:03.231Z,1031.8
2018-12-31T04:26:03.709Z,1031.9
2018-12-31T04:27:03.606Z,1031.9
2018-12-31T04:28:03.351Z,1031.7
2018-12-31T04:29:03.161Z,1031.7
2018-12-31T04:30:03.436Z,1031.8
2018-12-31T04:31:03.707Z,1031.8
2018-12-31T04:32:02.546Z,1031.9
2018-12-31T04:33:03.263Z,1031.9
2018-12-31T04:34:03.752Z,1031.9
2018-12-31T04:35:02.865Z,1032
2018-12-31T04:36:03.355Z,1032
2018-12-31T04:37:03.723Z,1032
2018-12-31T04:38:03.537Z,1032
2018-12-31T04:39:04.223Z,1032
2018-12-31T04:40:04.136Z,1032.1
2018-12-31T04:41:03.113Z,1032.1
2018-12-31T04:42:03.990Z,1032.1
2018-12-31T04:43:03.547Z,1032.1
2018-12-31T04:44:03.118Z,1032.1
2018-12-31T04:45:03.513Z,1032.1
2018-12-31T04:46:03.322Z,1032.2
2018-12-31T04:47:03.992Z,1032.2
2018-12-31T04:48:03.490Z,1032.3
2018-12-31T04:49:03.275Z,1032.3
2018-12-31T04:50:03.678Z,1032.3
2018-12-31T04:51:03.271Z,1032.3
2018-12-31T04:52:03.154Z,1032
2018-12-31T04:53:03.425Z,1032.1
2018-12-31T04:54:03.483Z,1032.1
2018-12-31T04:55:03.611Z,1032.2
2018-12-31T04:56:03.232Z,1032.3
2018-12-31T04:57:03.342Z,1032.1
2018-12-31T04:58:03.717Z,1032.1
2018-12-31T04:59:04.357Z,1032.1
2018-12-31T05:00:03.722Z,1032.1
2018-12-31T05:01:03.612Z,1032.2
2018-12-31T05:02:03.450Z,1032.3
2018-12-31T05:04:03.742Z,1032.4
2018-12-31T05:05:02.642Z,1032.3
2018-12-31T05:06:03.985Z,1032.4
2018-12-31T05:07:02.736Z,1032.5
2018-12-31T05:08:03.628Z,1032.5
2018-12-31T05:09:03.998Z,1032.5
2018-12-31T05:10:03.663Z,1032.5
2018-12-31T05:11:03.921Z,1032.5
2018-12-31T05:12:03.022Z,1032.5
2018-12-31T05:13:03.875Z,1032.4
2018-12-31T05:14:03.308Z,1032.4
2018-12-31T05:15:03.800Z,1032.5
2018-12-31T05:16:03.283Z,1032.5
2018-12-31T05:17:03.833Z,1032.5
2018-12-31T05:18:03.393Z,1032.4
2018-12-31T05:19:03.361Z,1032.5
2018-12-31T05:20:03.650Z,1032.5
2018-12-31T05:21:03.526Z,1032.4
2018-12-31T05:22:03.010Z,1032.4
2018-12-31T05:24:03.214Z,1032.5
2018-12-31T05:25:03.180Z,1032.5
2018-12-31T05:26:03.505Z,1032.5
2018-12-31T05:28:04.125Z,1032.6
2018-12-31T05:29:03.420Z,1032.6
2018-12-31T05:30:03.584Z,1032.6
2018-12-31T05:31:04.108Z,1032.6
2018-12-31T05:32:03.813Z,1032.6
2018-12-31T05:33:03.871Z,1032.6
2018-12-31T05:34:03.659Z,1032.7
2018-12-31T05:35:03.885Z,1032.5
2018-12-31T05:36:03.808Z,1032.5
2018-12-31T05:37:03.508Z,1032.6
2018-12-31T05:38:03.555Z,1032.6
2018-12-31T05:39:04.409Z,1032.5
2018-12-31T05:40:03.923Z,1032.5
2018-12-31T05:41:03.236Z,1032.6
2018-12-31T05:42:03.170Z,1032.7
2018-12-31T05:43:03.949Z,1032.7
2018-12-31T05:44:02.914Z,1032.7
2018-12-31T05:45:03.402Z,1032.7
2018-12-31T05:46:03.339Z,1032.7
2018-12-31T05:47:03.252Z,1032.6
2018-12-31T05:48:03.926Z,1032.6
2018-12-31T05:49:03.513Z,1032.5
2018-12-31T05:50:03.982Z,1032.5
2018-12-31T05:51:02.259Z,1032.5
2018-12-31T05:52:03.032Z,1032.5
2018-12-31T05:53:03.262Z,1032.6
2018-12-31T05:54:03.362Z,1032.6
2018-12-31T05:55:03.862Z,1032.6
2018-12-31T05:56:03.186Z,1032.5
2018-12-31T05:57:02.191Z,1032.6
2018-12-31T05:58:03.590Z,1032.5
2018-12-31T05:59:04.058Z,1032.5
2018-12-31T06:00:03.745Z,1032.6
2018-12-31T06:01:03.933Z,1032.6
2018-12-31T06:02:03.711Z,1032.6
2018-12-31T06:03:03.614Z,1032.5
2018-12-31T06:04:03.797Z,1032.5
2018-12-31T06:05:03.237Z,1032.5
2018-12-31T06:06:03.936Z,1032.5
2018-12-31T06:07:03.909Z,1032.6
2018-12-31T06:08:03.370Z,1032.6
2018-12-31T06:09:03.713Z,1032.6
2018-12-31T06:10:04.323Z,1032.6
2018-12-31T06:11:03.662Z,1032.7
2018-12-31T06:12:03.366Z,1032.6
2018-12-31T06:13:03.078Z,1032.6
2018-12-31T06:15:01.878Z,1032.7
2018-12-31T06:16:03.869Z,1032.6
2018-12-31T06:17:02.403Z,1032.6
2018-12-31T06:18:03.691Z,1032.6
2018-12-31T06:19:03.417Z,1032.6
2018-12-31T06:20:04.155Z,1032.6
2018-12-31T06:21:03.468Z,1032.6
2018-12-31T06:22:04.390Z,1032.7
2018-12-31T06:23:03.674Z,1032.7
2018-12-31T06:24:03.671Z,1032.7
2018-12-31T06:25:03.289Z,1032.7
2018-12-31T06:26:03.306Z,1032.6
2018-12-31T06:27:03.207Z,1032.7
2018-12-31T06:28:03.303Z,1032.8
2018-12-31T06:29:03.117Z,1032.8
2018-12-31T06:30:03.299Z,1032.8
2018-12-31T06:31:03.492Z,1032.8
2018-12-31T06:32:03.381Z,1032.8
2018-12-31T06:33:03.097Z,1032.8
2018-12-31T06:34:03.188Z,1032.8
2018-12-31T06:35:03.223Z,1032.8
2018-12-31T06:36:04.043Z,1032.7
2018-12-31T06:37:04.165Z,1032.7
2018-12-31T06:38:04.088Z,1032.8
2018-12-31T06:39:03.183Z,1032.8
2018-12-31T06:40:02.224Z,1032.8
2018-12-31T06:41:03.244Z,1032.8
2018-12-31T06:42:05.727Z,1032.8
2018-12-31T06:43:03.640Z,1032.8
2018-12-31T06:44:03.339Z,1032.7
2018-12-31T06:45:03.486Z,1032.8
2018-12-31T06:46:03.527Z,1032.8
2018-12-31T06:47:03.528Z,1032.8
2018-12-31T06:48:03.730Z,1032.8
2018-12-31T06:49:04.011Z,1032.8
2018-12-31T06:50:03.203Z,1032.8
2018-12-31T06:51:03.675Z,1032.8
2018-12-31T06:52:03.509Z,1032.8
2018-12-31T06:53:03.889Z,1032.8
2018-12-31T06:54:03.425Z,1032.9
2018-12-31T06:55:03.172Z,1033
2018-12-31T06:56:03.323Z,1033
2018-12-31T06:57:03.791Z,1033
2018-12-31T06:58:03.464Z,1033
2018-12-31T06:59:03.006Z,1033
2018-12-31T07:00:03.630Z,1032.9
2018-12-31T07:01:03.658Z,1032.9
2018-12-31T07:02:02.900Z,1032.9
2018-12-31T07:03:02.789Z,1032.9
2018-12-31T07:04:02.425Z,1032.9
2018-12-31T07:05:03.831Z,1032.9
2018-12-31T07:06:03.647Z,1033
2018-12-31T07:07:03.719Z,1033
2018-12-31T07:08:03.869Z,1032.9
2018-12-31T07:09:03.653Z,1032.9
2018-12-31T07:10:03.247Z,1032.8
2018-12-31T07:11:03.134Z,1032.8
2018-12-31T07:12:03.644Z,1032.8
2018-12-31T07:13:03.482Z,1032.9
2018-12-31T07:14:03.549Z,1032.9
2018-12-31T07:15:03.874Z,1032.8
2018-12-31T07:16:03.578Z,1032.8
2018-12-31T07:17:04.280Z,1032.9
2018-12-31T07:18:03.157Z,1032.9
2018-12-31T07:19:03.012Z,1032.9
2018-12-31T07:20:03.295Z,1033
2018-12-31T07:21:03.664Z,1033
2018-12-31T07:22:03.676Z,1033
2018-12-31T07:23:02.961Z,1033
2018-12-31T07:25:03.422Z,1033
2018-12-31T07:26:02.828Z,1033
2018-12-31T07:27:07.064Z,1033.1
2018-12-31T07:28:03.106Z,1032.9
2018-12-31T07:29:03.944Z,1032.9
2018-12-31T07:30:02.374Z,1033
2018-12-31T07:31:03.127Z,1032.9
2018-12-31T07:32:03.372Z,1032.9
2018-12-31T07:33:03.219Z,1033.1
2018-12-31T07:34:03.628Z,1033
2018-12-31T07:35:03.327Z,1033
2018-12-31T07:36:03.946Z,1033
2018-12-31T07:37:03.387Z,1033.1
2018-12-31T07:38:03.701Z,1033.1
2018-12-31T07:39:03.482Z,1033.1
2018-12-31T07:40:03.643Z,1033.1
2018-12-31T07:41:03.609Z,1033.1
2018-12-31T07:42:03.987Z,1033.1
2018-12-31T07:43:03.146Z,1033.1
2018-12-31T07:44:03.839Z,1033.2
2018-12-31T07:45:03.604Z,1033.2
2018-12-31T07:46:03.445Z,1033.2
2018-12-31T07:47:03.271Z,1033.2
2018-12-31T07:48:03.094Z,1033.2
2018-12-31T07:49:03.594Z,1033.2
2018-12-31T07:50:02.348Z,1033.1
2018-12-31T07:51:02.041Z,1033.2
2018-12-31T07:52:02.901Z,1033.3
2018-12-31T07:53:01.780Z,1033.1
2018-12-31T07:54:03.877Z,1033.1
2018-12-31T07:55:03.530Z,1033
2018-12-31T07:56:03.568Z,1033.1
2018-12-31T07:57:03.699Z,1033.1
2018-12-31T07:59:04.191Z,1033
2018-12-31T08:00:03.545Z,1033
2018-12-31T08:01:03.251Z,1033.1
2018-12-31T08:02:03.343Z,1033.1
2018-12-31T08:03:03.745Z,1033
2018-12-31T08:04:03.533Z,1033
2018-12-31T08:05:03.802Z,1033
2018-12-31T08:06:05.712Z,1033
2018-12-31T08:07:03.543Z,1033.1
2018-12-31T08:08:04.008Z,1033.1
2018-12-31T08:09:03.251Z,1033.1
2018-12-31T08:10:03.246Z,1033.1
2018-12-31T08:11:03.758Z,1033.2
2018-12-31T08:13:03.180Z,1033.1
2018-12-31T08:14:04.002Z,1033.1
2018-12-31T08:15:03.370Z,1033.2
2018-12-31T08:16:03.030Z,1033.1
2018-12-31T08:17:03.844Z,1033.1
2018-12-31T08:18:04.061Z,1033.1
2018-12-31T08:19:03.489Z,1033
2018-12-31T08:20:03.513Z,1033
2018-12-31T08:21:03.705Z,1032.9
2018-12-31T08:22:03.493Z,1032.9
2018-12-31T08:23:03.455Z,1032.9
2018-12-31T08:24:03.348Z,1032.9
2018-12-31T08:25:03.765Z,1032.7
2018-12-31T08:26:03.203Z,1032.8
2018-12-31T08:27:03.176Z,1032.8
2018-12-31T08:28:03.841Z,1032.8
2018-12-31T08:29:03.330Z,1032.8
2018-12-31T08:30:02.919Z,1032.9
2018-12-31T08:31:03.795Z,1032.9
2018-12-31T08:32:03.400Z,1032.9
2018-12-31T08:33:03.616Z,1032.9
2018-12-31T08:34:03.907Z,1032.9
2018-12-31T08:35:03.978Z,1032.9
2018-12-31T08:36:03.299Z,1033
2018-12-31T08:37:03.325Z,1033
2018-12-31T08:38:03.244Z,1033
2018-12-31T08:39:03.021Z,1032.9
2018-12-31T08:40:03.200Z,1032.9
2018-12-31T08:41:02.605Z,1032.9
2018-12-31T08:42:02.434Z,1032.9
2018-12-31T08:43:03.763Z,1033
2018-12-31T08:44:04.120Z,1032.9
2018-12-31T08:45:03.901Z,1032.9
2018-12-31T08:46:03.994Z,1032.9
2018-12-31T08:47:03.391Z,1032.9
2018-12-31T08:48:04.331Z,1032.9
2018-12-31T08:49:03.098Z,1032.8
2018-12-31T08:50:03.812Z,1032.9
2018-12-31T08:51:03.174Z,1032.9
2018-12-31T08:52:03.608Z,1032.9
2018-12-31T08:53:03.519Z,1032.9
2018-12-31T08:54:03.435Z,1032.9
2018-12-31T08:55:03.760Z,1032.9
2018-12-31T08:56:03.215Z,1033.1
2018-12-31T08:57:03.701Z,1033.1
2018-12-31T08:58:03.793Z,1033.1
2018-12-31T08:59:03.136Z,1033
2018-12-31T09:00:03.051Z,1033.1
2018-12-31T09:01:03.248Z,1033
2018-12-31T09:02:03.502Z,1033
2018-12-31T09:03:03.147Z,1033
2018-12-31T09:04:02.825Z,1033
2018-12-31T09:05:04.107Z,1033
2018-12-31T09:06:03.867Z,1033
2018-12-31T09:07:02.954Z,1033
2018-12-31T09:08:03.708Z,1033
2018-12-31T09:09:03.860Z,1032.9
2018-12-31T09:10:03.447Z,1033
2018-12-31T09:11:03.099Z,1033
2018-12-31T09:12:03.440Z,1033
2018-12-31T09:13:03.532Z,1032.9
2018-12-31T09:14:03.427Z,1032.9
2018-12-31T09:15:04.143Z,1032.9
2018-12-31T09:16:03.306Z,1032.9
2018-12-31T09:17:03.701Z,1032.9
2018-12-31T09:18:03.273Z,1033
2018-12-31T09:19:03.824Z,1033
2018-12-31T09:20:03.680Z,1033
2018-12-31T09:21:03.228Z,1033
2018-12-31T09:22:03.350Z,1033
2018-12-31T09:23:03.181Z,1033.1
2018-12-31T09:24:03.004Z,1033.1
2018-12-31T09:25:03.698Z,1033.1
2018-12-31T09:26:03.252Z,1033.1
2018-12-31T09:27:03.054Z,1033.2
2018-12-31T09:28:02.383Z,1033.1
2018-12-31T09:29:02.394Z,1033
2018-12-31T09:30:03.821Z,1033
2018-12-31T09:31:02.192Z,1033.1
2018-12-31T09:32:03.505Z,1033.1
2018-12-31T09:33:03.087Z,1033.2
2018-12-31T09:34:02.699Z,1033.1
2018-12-31T09:35:03.915Z,1033.1
2018-12-31T09:36:03.173Z,1033.1
2018-12-31T09:37:03.423Z,1033.2
2018-12-31T09:38:04.097Z,1033.2
2018-12-31T09:39:03.553Z,1033
2018-12-31T09:40:03.986Z,1033
2018-12-31T09:41:03.845Z,1033
2018-12-31T09:42:03.414Z,1033
2018-12-31T09:43:03.315Z,1033
2018-12-31T09:44:03.720Z,1033
2018-12-31T09:45:03.237Z,1033
2018-12-31T09:46:03.531Z,1033
2018-12-31T09:47:03.732Z,1033
2018-12-31T09:48:03.497Z,1033
2018-12-31T09:49:03.659Z,1033
2018-12-31T09:50:02.903Z,1033
2018-12-31T09:51:02.895Z,1033.1
2018-12-31T09:52:02.126Z,1033.2
2018-12-31T09:53:03.307Z,1033.1
2018-12-31T09:54:03.082Z,1033.1
2018-12-31T09:55:04.306Z,1033.1
2018-12-31T09:56:02.953Z,1033.1
2018-12-31T09:57:03.141Z,1033.1
2018-12-31T09:58:03.835Z,1033.1
2018-12-31T09:59:03.130Z,1032.9
2018-12-31T10:00:03.244Z,1033.1
2018-12-31T10:01:03.129Z,1033
2018-12-31T10:02:03.244Z,1033
2018-12-31T10:03:03.918Z,1033
2018-12-31T10:04:03.481Z,1033
2018-12-31T10:05:06.989Z,1033.1
2018-12-31T10:06:03.292Z,1033.1
2018-12-31T10:07:04.034Z,1033
2018-12-31T10:08:03.971Z,1033
2018-12-31T10:09:03.293Z,1033.1
2018-12-31T10:10:03.425Z,1032.9
2018-12-31T10:11:03.258Z,1032.8
2018-12-31T10:12:03.941Z,1032.8
2018-12-31T10:13:03.802Z,1032.8
2018-12-31T10:14:04.059Z,1032.9
2018-12-31T10:15:02.197Z,1033
2018-12-31T10:16:03.256Z,1033
2018-12-31T10:17:03.841Z,1033
2018-12-31T10:19:03.549Z,1033
2018-12-31T10:20:03.259Z,1033
2018-12-31T10:21:03.692Z,1033
2018-12-31T10:22:03.590Z,1033
2018-12-31T10:23:03.336Z,1033
2018-12-31T10:24:04.039Z,1033
2018-12-31T10:25:03.910Z,1033
2018-12-31T10:26:03.332Z,1033
2018-12-31T10:27:03.943Z,1033.1
2018-12-31T10:28:04.206Z,1033.1
2018-12-31T10:29:03.927Z,1033.1
2018-12-31T10:30:03.595Z,1033.1
2018-12-31T10:31:03.125Z,1033.1
2018-12-31T10:32:03.661Z,1033.1
2018-12-31T10:33:03.031Z,1033.1
2018-12-31T10:34:03.933Z,1033.1
2018-12-31T10:35:03.865Z,1033.1
2018-12-31T10:36:03.700Z,1033.1
2018-12-31T10:37:03.267Z,1033.1
2018-12-31T10:38:03.436Z,1033.1
2018-12-31T10:39:06.696Z,1033
2018-12-31T10:40:03.776Z,1033
2018-12-31T10:41:03.662Z,1033
2018-12-31T10:42:03.382Z,1033
2018-12-31T10:43:02.262Z,1033
2018-12-31T10:44:03.270Z,1033
2018-12-31T10:45:04.645Z,1033
2018-12-31T10:46:03.776Z,1033
2018-12-31T10:47:03.485Z,1033
2018-12-31T10:48:03.874Z,1032.9
2018-12-31T10:49:03.759Z,1033
2018-12-31T10:50:03.489Z,1033
2018-12-31T10:51:03.967Z,1033
2018-12-31T10:52:03.901Z,1032.9
2018-12-31T10:53:06.484Z,1033
2018-12-31T10:54:03.006Z,1033
2018-12-31T10:55:04.316Z,1032.8
2018-12-31T10:56:03.482Z,1032.9
2018-12-31T10:57:03.333Z,1032.9
2018-12-31T10:58:03.708Z,1032.9
2018-12-31T10:59:03.139Z,1033
2018-12-31T11:00:03.413Z,1032.9
2018-12-31T11:01:03.510Z,1032.8
2018-12-31T11:02:03.799Z,1032.8
2018-12-31T11:03:03.470Z,1032.9
2018-12-31T11:04:03.534Z,1032.9
2018-12-31T11:05:03.317Z,1032.9
2018-12-31T11:06:02.378Z,1032.9
2018-12-31T11:07:02.621Z,1032.8
2018-12-31T11:08:03.212Z,1032.8
2018-12-31T11:09:02.907Z,1032.9
2018-12-31T11:10:03.358Z,1032.8
2018-12-31T11:11:04.060Z,1032.8
2018-12-31T11:12:04.083Z,1032.8
2018-12-31T11:13:02.492Z,1032.8
2018-12-31T11:14:03.994Z,1032.8
2018-12-31T11:15:03.660Z,1032.7
2018-12-31T11:16:03.810Z,1032.7
2018-12-31T11:17:03.932Z,1032.6
2018-12-31T11:18:03.305Z,1032.7
2018-12-31T11:19:04.059Z,1032.7
2018-12-31T11:20:03.164Z,1032.8
2018-12-31T11:21:03.736Z,1032.7
2018-12-31T11:22:05.070Z,1032.7
2018-12-31T11:23:03.072Z,1032.7
2018-12-31T11:24:04.036Z,1032.6
2018-12-31T11:25:03.253Z,1032.6
2018-12-31T11:26:03.848Z,1032.6
2018-12-31T11:27:03.711Z,1032.6
2018-12-31T11:28:03.927Z,1032.6
2018-12-31T11:29:03.556Z,1032.5
2018-12-31T11:30:03.955Z,1032.6
2018-12-31T11:31:02.907Z,1032.6
2018-12-31T11:32:04.071Z,1032.6
2018-12-31T11:33:03.833Z,1032.6
2018-12-31T11:34:02.464Z,1032.6
2018-12-31T11:35:02.730Z,1032.5
2018-12-31T11:36:03.256Z,1032.5
2018-12-31T11:37:03.538Z,1032.5
2018-12-31T11:38:03.790Z,1032.4
2018-12-31T11:39:03.289Z,1032.4
2018-12-31T11:40:02.944Z,1032.4
2018-12-31T11:41:03.826Z,1032.4
2018-12-31T11:42:15.909Z,1032.4
2018-12-31T11:43:04.005Z,1032.4
2018-12-31T11:44:03.583Z,1032.4
2018-12-31T11:45:03.395Z,1032.4
2018-12-31T11:46:03.399Z,1032.3
2018-12-31T11:47:04.014Z,1032.3
2018-12-31T11:48:03.798Z,1032.4
2018-12-31T11:49:03.554Z,1032.4
2018-12-31T11:50:03.362Z,1032.3
2018-12-31T11:51:03.481Z,1032.3
2018-12-31T11:52:03.338Z,1032.2
2018-12-31T11:53:03.448Z,1032.2
2018-12-31T11:54:03.460Z,1032.2
2018-12-31T11:56:03.073Z,1032.1
2018-12-31T11:57:03.274Z,1032.2
2018-12-31T11:58:02.534Z,1032.1
2018-12-31T11:59:02.789Z,1032.2
2018-12-31T12:00:02.500Z,1032.1
2018-12-31T12:01:04.110Z,1032.2
2018-12-31T12:02:03.857Z,1032.1
2018-12-31T12:03:02.098Z,1032.2
2018-12-31T12:04:02.195Z,1032.2
2018-12-31T12:05:04.536Z,1032.2
2018-12-31T12:06:03.088Z,1032.2
2018-12-31T12:07:03.817Z,1032.2
2018-12-31T12:08:03.514Z,1032.2
2018-12-31T12:09:03.927Z,1032.3
2018-12-31T12:10:03.275Z,1032.3
2018-12-31T12:11:04.187Z,1032.3
2018-12-31T12:12:04.047Z,1032.3
2018-12-31T12:13:03.780Z,1032.2
2018-12-31T12:14:03.876Z,1032.2
2018-12-31T12:15:03.816Z,1032.2
2018-12-31T12:16:03.684Z,1032.2
2018-12-31T12:17:03.089Z,1032.2
2018-12-31T12:18:03.841Z,1032.2
2018-12-31T12:19:03.342Z,1032.2
2018-12-31T12:20:05.040Z,1032.1
2018-12-31T12:21:02.386Z,1032.2
2018-12-31T12:22:03.351Z,1032.2
2018-12-31T12:23:03.656Z,1032.2
2018-12-31T12:24:03.816Z,1032.2
2018-12-31T12:26:04.067Z,1032.1
2018-12-31T12:27:03.161Z,1032.2
2018-12-31T12:28:05.391Z,1032.1
2018-12-31T12:29:05.168Z,1032.1
2018-12-31T12:30:04.001Z,1032.2
2018-12-31T12:31:04.104Z,1032.1
2018-12-31T12:32:03.488Z,1032.2
2018-12-31T12:33:03.442Z,1032.2
2018-12-31T12:34:03.652Z,1032.2
2018-12-31T12:35:04.279Z,1032.1
2018-12-31T12:36:03.953Z,1032.1
2018-12-31T12:37:04.030Z,1032.2
2018-12-31T12:38:05.782Z,1032.2
2018-12-31T12:39:03.503Z,1032.1
2018-12-31T12:40:03.524Z,1032.1
2018-12-31T12:41:04.314Z,1032.1
2018-12-31T12:42:04.928Z,1032
2018-12-31T12:43:03.848Z,1032
2018-12-31T12:44:03.945Z,1032
2018-12-31T12:45:04.034Z,1032
2018-12-31T12:46:03.513Z,1032.1
2018-12-31T12:48:04.536Z,1032.1
2018-12-31T12:49:03.567Z,1032.1
2018-12-31T12:50:03.982Z,1032.1
2018-12-31T12:51:04.927Z,1032.1
2018-12-31T12:52:03.879Z,1032.1
2018-12-31T12:53:03.910Z,1032.2
2018-12-31T12:54:03.795Z,1032